Time;durP1;ratioP1;P1;durP2;ratioP2;P2;SDS_P1;SDS_P2;PMS_P1;PMS_P2;Temp;Humidity;BMP_temperature;BMP_pressure;BME280_temperature;BME280_humidity;BME280_pressure;Samples;Min_cycle;Max_cycle;Signal;HPM_P1;HPM_P2
2021/01/05 00:00:55;;;;;;;3.17;3.07;;;;;;;1.48;92.10;103185.03;6292421;28;20212;-76
2021/01/05 00:04:07;;;;;;;3.37;3.27;;;;;;;1.54;92.05;103171.19;6305671;28;20202;-78
2021/01/05 00:07:14;;;;;;;3.43;3.23;;;;;;;1.49;91.38;103157.19;6311712;28;20209;-77
2021/01/05 00:10:19;;;;;;;3.13;3.03;;;;;;;1.48;91.04;103166.22;6311869;28;20197;-77
2021/01/05 00:13:24;;;;;;;3.00;2.90;;;;;;;1.51;91.39;103176.78;6312032;28;20740;-77
2021/01/05 00:16:31;;;;;;;3.00;2.90;;;;;;;1.53;91.35;103185.59;6311752;28;20298;-76
2021/01/05 00:19:35;;;;;;;2.90;2.73;;;;;;;1.49;90.93;103178.72;6317152;28;20198;-76
2021/01/05 00:22:38;;;;;;;3.30;3.20;;;;;;;1.58;91.43;103172.69;6329874;28;20198;-77
2021/01/05 00:25:43;;;;;;;2.60;2.50;;;;;;;1.47;90.43;103181.47;6314197;28;20208;-76
2021/01/05 00:28:46;;;;;;;2.93;2.83;;;;;;;1.50;90.87;103170.53;6314859;28;20343;-77
2021/01/05 00:31:50;;;;;;;3.00;2.90;;;;;;;1.40;91.06;103163.16;6311804;28;20194;-77
2021/01/05 00:34:54;;;;;;;3.33;3.10;;;;;;;1.49;90.98;103167.94;6310341;28;20266;-77
2021/01/05 00:37:59;;;;;;;2.90;2.80;;;;;;;1.43;91.16;103179.09;6313972;28;20197;-77
2021/01/05 00:41:03;;;;;;;2.93;2.83;;;;;;;1.40;90.94;103173.91;6306431;28;21494;-77
2021/01/05 00:44:06;;;;;;;4.57;2.43;;;;;;;1.42;90.68;103169.28;6311276;28;20195;-77
2021/01/05 00:47:14;;;;;;;3.10;2.97;;;;;;;1.45;90.73;103171.78;6307310;28;20229;-77
2021/01/05 00:50:18;;;;;;;3.20;3.10;;;;;;;1.46;91.26;103184.28;6312188;28;20240;-77
2021/01/05 00:53:25;;;;;;;3.50;2.90;;;;;;;1.47;91.14;103180.63;6312813;28;20921;-77
2021/01/05 00:56:30;;;;;;;3.00;2.90;;;;;;;1.47;90.14;103176.09;6290074;28;20214;-77
2021/01/05 00:59:34;;;;;;;2.60;2.50;;;;;;;1.43;90.91;103168.34;6310231;28;20298;-77
2021/01/05 01:02:38;;;;;;;2.87;2.80;;;;;;;1.51;90.45;103172.25;6294061;28;20215;-77
2021/01/05 01:05:42;;;;;;;2.87;2.77;;;;;;;1.46;91.04;103176.22;6309943;28;20219;-77
2021/01/05 01:08:48;;;;;;;2.70;2.60;;;;;;;1.50;90.21;103180.41;6307201;28;20247;-76
2021/01/05 01:11:59;;;;;;;2.80;2.80;;;;;;;1.48;90.36;103166.22;6295478;28;20601;-77
2021/01/05 01:15:06;;;;;;;3.10;2.90;;;;;;;1.54;89.71;103174.72;6306306;28;20276;-76
2021/01/05 01:18:18;;;;;;;2.60;2.50;;;;;;;1.52;90.54;103183.88;6313568;28;20554;-77
2021/01/05 01:21:22;;;;;;;2.60;2.57;;;;;;;1.42;90.11;103169.28;6291524;28;20203;-77
2021/01/05 01:24:26;;;;;;;2.93;2.83;;;;;;;1.55;90.30;103170.22;6310588;28;20521;-76
2021/01/05 01:27:31;;;;;;;2.90;2.80;;;;;;;1.53;89.47;103178.41;6305413;28;20249;-77
2021/01/05 01:30:35;;;;;;;2.70;2.60;;;;;;;1.54;89.76;103179.25;6314740;28;20190;-77
2021/01/05 01:33:45;;;;;;;2.43;2.43;;;;;;;1.47;89.67;103170.72;6289401;28;20194;-77
2021/01/05 01:36:57;;;;;;;2.30;2.30;;;;;;;1.52;89.31;103173.09;6308107;28;20210;-77
2021/01/05 01:40:01;;;;;;;2.57;2.57;;;;;;;1.50;89.71;103180.41;6307036;28;20206;-77
2021/01/05 01:43:12;;;;;;;2.77;2.67;;;;;;;1.40;89.73;103166.72;6286918;28;20591;-77
2021/01/05 01:46:17;;;;;;;2.90;2.70;;;;;;;1.46;89.81;103173.53;6294017;28;20290;-77
2021/01/05 01:49:22;;;;;;;3.10;3.00;;;;;;;1.37;90.61;103172.28;6312292;28;20214;-76
2021/01/05 01:52:50;;;;;;;2.50;2.50;;;;;;;1.50;90.02;103175.03;6317213;28;20257;-77
2021/01/05 01:56:08;;;;;;;2.50;2.50;;;;;;;1.45;89.67;103171.78;6293860;28;20217;-77
2021/01/05 01:59:38;;;;;;;2.70;2.70;;;;;;;1.40;89.97;103171.22;6313991;28;20200;-77
2021/01/05 02:03:16;;;;;;;2.80;2.70;;;;;;;1.34;90.29;103179.69;6294875;28;20198;-78
2021/01/05 02:06:30;;;;;;;2.70;2.70;;;;;;;1.40;90.10;103179.31;6294456;28;20206;-77
2021/01/05 02:09:50;;;;;;;3.00;2.80;;;;;;;1.40;90.67;103163.16;6294704;28;20213;-77
2021/01/05 02:13:04;;;;;;;2.80;2.70;;;;;;;1.35;90.21;103170.66;6294256;28;20262;-77
2021/01/05 02:16:33;;;;;;;2.50;2.40;;;;;;;1.26;90.20;103140.72;6296355;28;20218;-77
2021/01/05 02:19:50;;;;;;;2.80;2.70;;;;;;;1.30;90.96;103164.72;6312458;28;20694;-77
2021/01/05 02:23:03;;;;;;;2.53;2.53;;;;;;;1.26;90.19;103156.00;6297271;28;21038;-76
2021/01/05 02:26:16;;;;;;;2.80;2.70;;;;;;;1.35;90.78;103176.06;6299564;28;20353;-77
2021/01/05 02:29:27;;;;;;;2.77;2.57;;;;;;;1.36;90.18;103172.41;6292662;28;20214;-76
2021/01/05 02:32:41;;;;;;;2.30;2.30;;;;;;;1.31;90.37;103163.78;6324092;28;20194;-76
2021/01/05 02:36:27;;;;;;;2.43;2.33;;;;;;;1.35;89.83;103171.53;6300913;28;20431;-76
2021/01/05 02:40:24;;;;;;;2.57;2.47;;;;;;;1.33;89.12;103183.38;6296572;28;20289;-77
2021/01/05 02:44:19;;;;;;;2.37;2.33;;;;;;;1.35;88.65;103176.06;6307144;28;20194;-76
2021/01/05 02:47:58;;;;;;;2.87;2.70;;;;;;;1.30;89.69;103170.13;6274523;28;20227;-77
2021/01/05 02:51:56;;;;;;;2.47;2.47;;;;;;;1.39;89.16;103178.44;6316222;28;20233;-77
2021/01/05 02:55:54;;;;;;;2.60;2.50;;;;;;;1.24;88.60;103148.03;6314559;28;20249;-77
2021/01/05 02:59:42;;;;;;;2.47;2.37;;;;;;;1.37;88.93;103163.34;6314264;28;20671;-77
2021/01/05 03:03:44;;;;;;;3.60;2.43;;;;;;;1.38;87.93;103165.97;6312807;28;20678;-77
2021/01/05 03:07:14;;;;;;;2.60;2.50;;;;;;;1.33;87.91;103161.84;6310002;28;20545;-77
2021/01/05 03:10:51;;;;;;;2.83;2.63;;;;;;;1.28;88.11;103138.78;6313804;28;20206;-76
2021/01/05 03:14:20;;;;;;;1.93;1.93;;;;;;;1.42;87.28;103161.22;6316897;28;20281;-76
2021/01/05 03:17:49;;;;;;;2.20;2.20;;;;;;;1.36;87.04;103167.03;6313183;28;20621;-76
2021/01/05 03:21:36;;;;;;;2.60;2.50;;;;;;;1.30;87.64;103167.41;6265307;28;20211;-77
2021/01/05 03:24:59;;;;;;;2.23;2.13;;;;;;;1.37;87.08;103174.97;6260694;28;20637;-76
2021/01/05 03:28:24;;;;;;;2.43;2.43;;;;;;;1.25;87.46;103165.03;6313821;28;20236;-77
2021/01/05 03:31:49;;;;;;;2.37;2.37;;;;;;;1.45;86.48;103172.66;6316195;28;20556;-77
2021/01/05 03:35:12;;;;;;;2.40;2.40;;;;;;;1.49;86.14;103174.16;6316735;28;20202;-75
2021/01/05 03:38:35;;;;;;;2.20;2.20;;;;;;;1.44;86.06;103168.22;6327876;28;20200;-76
2021/01/05 03:41:57;;;;;;;1.80;1.80;;;;;;;1.41;85.95;103181.03;6313419;28;20237;-76
2021/01/05 03:45:23;;;;;;;2.17;2.17;;;;;;;1.39;85.12;103166.84;6308980;28;20202;-76
2021/01/05 03:48:45;;;;;;;2.00;2.00;;;;;;;1.48;85.39;103182.34;6313909;28;20206;-76
2021/01/05 03:52:08;;;;;;;2.37;2.37;;;;;;;1.52;85.31;103181.16;6314068;28;20222;-77
2021/01/05 03:55:29;;;;;;;2.57;2.57;;;;;;;1.41;84.98;103181.91;6312307;28;20225;-76
2021/01/05 03:58:51;;;;;;;2.13;2.13;;;;;;;1.37;84.96;103179.50;6312032;28;20565;-77
2021/01/05 04:02:13;;;;;;;2.07;2.07;;;;;;;1.35;85.22;103176.06;6315754;28;20306;-76
2021/01/05 04:05:17;;;;;;;1.77;1.77;;;;;;;1.30;84.86;103168.28;6310484;28;20241;-77
2021/01/05 04:08:21;;;;;;;2.30;2.20;;;;;;;1.27;85.11;103169.34;6311525;28;20399;-77
2021/01/05 04:11:24;;;;;;;1.73;1.73;;;;;;;1.27;84.28;103155.91;6314228;28;20412;-77
2021/01/05 04:14:28;;;;;;;2.10;2.00;;;;;;;1.47;84.13;103165.34;6312484;28;20544;-77
2021/01/05 04:17:31;;;;;;;2.27;2.17;;;;;;;1.37;84.71;103160.66;6311612;28;20225;-77
2021/01/05 04:20:38;;;;;;;1.93;1.93;;;;;;;1.32;85.16;103160.97;6303947;28;20591;-77
2021/01/05 04:23:43;;;;;;;2.10;2.10;;;;;;;1.49;83.90;103168.78;6311354;28;20209;-76
2021/01/05 04:26:47;;;;;;;2.27;2.20;;;;;;;1.50;84.81;103170.53;6314085;28;20233;-76
2021/01/05 04:29:50;;;;;;;2.00;2.00;;;;;;;1.39;83.60;103156.06;6313835;28;20688;-76
2021/01/05 04:32:55;;;;;;;2.00;2.00;;;;;;;1.45;83.82;103169.09;6312898;28;20205;-76
2021/01/05 04:35:59;;;;;;;2.10;2.10;;;;;;;1.43;84.04;103173.72;6314238;28;20250;-78
2021/01/05 04:39:05;;;;;;;2.00;2.00;;;;;;;1.36;83.70;103162.53;6310914;28;20340;-77
2021/01/05 04:42:17;;;;;;;2.13;2.13;;;;;;;1.37;84.04;103168.75;6313180;28;20218;-77
2021/01/05 04:45:23;;;;;;;2.20;2.10;;;;;;;1.29;83.75;103166.56;6335463;28;20257;-76
2021/01/05 04:48:38;;;;;;;2.10;2.00;;;;;;;1.32;83.87;103171.75;6313846;28;20224;-76
2021/01/05 04:51:48;;;;;;;1.90;1.90;;;;;;;1.28;83.57;103175.59;6308128;28;20377;-76
2021/01/05 04:55:01;;;;;;;2.10;2.00;;;;;;;1.23;83.84;103173.19;6311462;28;20262;-77
2021/01/05 04:58:10;;;;;;;2.10;1.90;;;;;;;1.26;84.78;103178.38;6310925;28;20241;-76
2021/01/05 05:01:19;;;;;;;2.10;2.10;;;;;;;1.28;84.22;103160.31;6306950;28;20709;-77
2021/01/05 05:04:30;;;;;;;1.97;1.97;;;;;;;1.26;84.35;103159.56;6300118;28;20194;-77
2021/01/05 05:07:47;;;;;;;2.20;2.20;;;;;;;1.21;84.31;103169.75;6316102;28;20222;-75
2021/01/05 05:10:57;;;;;;;2.33;2.23;;;;;;;1.24;84.67;103168.69;6314012;28;20213;-77
2021/01/05 05:14:08;;;;;;;2.20;2.20;;;;;;;1.20;85.16;103173.41;6313942;28;20194;-76
2021/01/05 05:17:39;;;;;;;2.40;2.40;;;;;;;1.18;84.13;103164.56;6313713;28;20603;-76
2021/01/05 05:21:03;;;;;;;2.20;2.20;;;;;;;1.04;84.73;103156.53;6275220;28;20229;-76
2021/01/05 05:24:20;;;;;;;2.50;2.50;;;;;;;1.13;85.38;103166.69;6313410;28;20258;-77
2021/01/05 05:27:34;;;;;;;2.20;2.20;;;;;;;1.16;85.74;103174.56;6321762;28;20298;-76
2021/01/05 05:30:40;;;;;;;2.43;2.43;;;;;;;1.22;85.36;103174.19;6318147;28;20188;-76
2021/01/05 05:33:44;;;;;;;3.40;2.90;;;;;;;1.20;86.04;103177.94;6318561;28;20306;-77
2021/01/05 05:37:01;;;;;;;2.23;2.23;;;;;;;1.28;85.34;103176.44;6313695;28;20214;-77
2021/01/05 05:40:17;;;;;;;2.53;2.47;;;;;;;1.19;85.36;103177.06;6318438;28;20205;-76
2021/01/05 05:43:37;;;;;;;2.27;2.27;;;;;;;1.17;85.62;103178.13;6318432;28;20562;-77
2021/01/05 05:46:44;;;;;;;2.70;2.60;;;;;;;1.10;85.65;103161.53;6307290;28;20475;-76
2021/01/05 05:49:55;;;;;;;3.10;3.00;;;;;;;1.20;86.17;103173.41;6322833;28;20204;-77
2021/01/05 05:53:02;;;;;;;2.70;2.60;;;;;;;1.08;86.37;103174.19;6332454;28;20630;-76
2021/01/05 05:56:12;;;;;;;2.67;2.60;;;;;;;1.05;86.45;103169.00;6315231;28;20251;-76
2021/01/05 05:59:18;;;;;;;2.57;2.47;;;;;;;0.99;86.80;103176.63;6315039;28;20688;-76
2021/01/05 06:02:23;;;;;;;2.73;2.73;;;;;;;1.08;86.85;103168.81;6317406;28;20219;-76
2021/01/05 06:05:31;;;;;;;2.53;2.53;;;;;;;0.96;86.94;103147.25;6311654;28;20703;-77
2021/01/05 06:08:34;;;;;;;2.70;2.60;;;;;;;1.05;86.46;103169.00;6314032;28;20202;-76
2021/01/05 06:11:38;;;;;;;2.57;2.57;;;;;;;1.06;86.38;103181.50;6313389;28;20255;-77
2021/01/05 06:14:42;;;;;;;2.60;2.60;;;;;;;1.00;87.44;103181.88;6320083;28;20327;-77
2021/01/05 06:17:45;;;;;;;2.67;2.60;;;;;;;0.96;86.94;103153.50;6315820;28;20225;-76
2021/01/05 06:20:48;;;;;;;2.83;2.83;;;;;;;0.82;87.06;103140.09;6308761;28;20201;-76
2021/01/05 06:23:52;;;;;;;2.70;2.60;;;;;;;1.07;86.44;103167.09;6314931;28;20564;-77
2021/01/05 06:26:55;;;;;;;2.70;2.60;;;;;;;0.97;86.58;103165.97;6297818;28;20223;-77
2021/01/05 06:29:59;;;;;;;2.83;2.80;;;;;;;0.99;86.49;103164.03;6287969;28;20199;-77
2021/01/05 06:33:06;;;;;;;2.67;2.47;;;;;;;0.85;86.91;103161.38;6289671;28;20227;-77
2021/01/05 06:36:10;;;;;;;2.70;2.70;;;;;;;0.89;87.38;103178.16;6291755;28;20198;-77
2021/01/05 06:39:15;;;;;;;3.07;2.87;;;;;;;0.86;87.29;103176.53;6285351;28;20217;-77
2021/01/05 06:42:22;;;;;;;2.80;2.70;;;;;;;0.89;86.48;103173.66;6290034;28;20191;-78
2021/01/05 06:45:29;;;;;;;3.00;2.90;;;;;;;0.66;86.91;103139.31;6289612;28;20569;-76
2021/01/05 06:48:33;;;;;;;3.10;3.00;;;;;;;0.87;86.70;103170.22;6291582;28;20194;-76
2021/01/05 06:51:37;;;;;;;3.40;3.20;;;;;;;0.74;86.90;103163.91;6288013;28;20720;-76
2021/01/05 06:54:40;;;;;;;3.63;3.33;;;;;;;0.96;86.90;103177.69;6291518;28;20193;-77
2021/01/05 06:57:44;;;;;;;3.50;3.33;;;;;;;0.91;86.96;103177.09;6310580;28;20240;-77
2021/01/05 07:00:48;;;;;;;3.10;2.90;;;;;;;0.81;86.51;103175.97;6289848;28;20649;-76
2021/01/05 07:03:51;;;;;;;2.93;2.90;;;;;;;0.97;86.31;103187.47;6291972;28;20198;-77
2021/01/05 07:06:56;;;;;;;4.57;2.90;;;;;;;0.96;85.89;103180.38;6288531;28;20197;-76
2021/01/05 07:10:05;;;;;;;3.10;3.00;;;;;;;0.85;86.02;103190.94;6280381;28;20196;-77
2021/01/05 07:13:11;;;;;;;3.43;3.27;;;;;;;0.90;86.50;103188.81;6282310;28;20420;-77
2021/01/05 07:16:15;;;;;;;3.60;3.40;;;;;;;0.97;85.78;103192.84;6290891;28;20202;-77
2021/01/05 07:19:19;;;;;;;3.30;3.20;;;;;;;0.93;86.54;103196.69;6292059;28;20188;-77
2021/01/05 07:22:23;;;;;;;3.00;2.83;;;;;;;1.00;85.80;103200.69;6292028;28;20249;-77
2021/01/05 07:25:26;;;;;;;2.80;2.70;;;;;;;0.99;85.85;103201.69;6287678;28;20231;-77
2021/01/05 07:28:30;;;;;;;2.90;2.80;;;;;;;0.87;85.49;103189.03;6311737;28;20249;-77
2021/01/05 07:31:34;;;;;;;2.77;2.67;;;;;;;0.92;86.21;103204.88;6314588;28;20188;-77
2021/01/05 07:34:37;;;;;;;3.83;3.60;;;;;;;0.84;86.64;103202.66;6315223;28;20232;-77
2021/01/05 07:37:43;;;;;;;3.23;3.03;;;;;;;0.85;86.88;103209.75;6315782;28;20225;-76
2021/01/05 07:40:46;;;;;;;3.20;3.00;;;;;;;0.74;86.88;103192.59;6313012;28;20206;-77
2021/01/05 07:43:50;;;;;;;2.50;2.50;;;;;;;0.91;86.08;103213.88;6314837;28;20197;-76
2021/01/05 07:46:57;;;;;;;2.93;2.80;;;;;;;0.89;86.13;103219.34;6312955;28;20592;-76
2021/01/05 07:50:01;;;;;;;3.50;3.30;;;;;;;0.73;86.32;103182.78;6313420;28;20293;-77
2021/01/05 07:53:05;;;;;;;3.30;3.20;;;;;;;0.83;86.78;103210.81;6311695;28;20194;-77
2021/01/05 07:56:25;;;;;;;2.80;2.70;;;;;;;0.84;86.41;103217.91;6313974;28;20246;-77
2021/01/05 07:59:29;;;;;;;2.77;2.67;;;;;;;0.82;86.19;103220.72;6317523;28;20198;-77
2021/01/05 08:02:33;;;;;;;2.57;2.57;;;;;;;0.77;86.12;103212.03;6329004;28;20270;-77
2021/01/05 08:05:37;;;;;;;2.40;2.40;;;;;;;0.80;86.30;103217.22;6309824;28;20190;-78
2021/01/05 08:08:41;;;;;;;2.60;2.50;;;;;;;0.80;85.77;103217.22;6311619;28;20206;-77
2021/01/05 08:11:44;;;;;;;2.07;2.07;;;;;;;0.82;85.67;103215.34;6315168;28;20281;-77
2021/01/05 08:14:48;;;;;;;2.70;2.60;;;;;;;0.77;85.72;103222.78;6311434;28;20201;-77
2021/01/05 08:17:52;;;;;;;2.57;2.47;;;;;;;0.78;85.66;103224.53;6310487;28;20419;-77
2021/01/05 08:20:56;;;;;;;2.23;2.20;;;;;;;0.80;85.68;103221.75;6308251;28;20644;-77
2021/01/05 08:23:59;;;;;;;2.60;2.50;;;;;;;0.87;85.53;103221.28;6307543;28;20323;-77
2021/01/05 08:27:03;;;;;;;2.63;2.60;;;;;;;0.88;85.77;103220.31;6294712;28;20584;-77
2021/01/05 08:30:07;;;;;;;2.93;2.53;;;;;;;0.90;85.63;103213.00;6302346;28;20230;-78
2021/01/05 08:33:18;;;;;;;6.03;2.27;;;;;;;0.87;85.21;103223.97;6307632;28;20258;-76
2021/01/05 08:36:27;;;;;;;2.97;2.00;;;;;;;0.80;85.09;103209.16;6303171;28;20193;-76
2021/01/05 08:39:30;;;;;;;2.43;2.37;;;;;;;0.82;85.33;103220.72;6299498;28;20218;-77
2021/01/05 08:42:34;;;;;;;2.47;2.43;;;;;;;0.82;85.82;103209.97;6303642;28;20213;-77
2021/01/05 08:45:40;;;;;;;2.37;2.37;;;;;;;0.85;85.45;103212.44;6308048;28;20298;-77
2021/01/05 08:48:44;;;;;;;2.47;2.47;;;;;;;0.88;84.86;103214.94;6310205;28;20288;-76
2021/01/05 08:51:48;;;;;;;3.83;3.60;;;;;;;0.99;85.12;103227.69;6304076;28;20220;-74
2021/01/05 08:54:51;;;;;;;2.67;2.60;;;;;;;0.93;84.99;103223.56;6313728;28;20237;-75
2021/01/05 08:57:55;;;;;;;2.77;2.50;;;;;;;1.01;84.73;103226.63;6307231;28;20282;-76
2021/01/05 09:00:58;;;;;;;2.13;2.13;;;;;;;1.04;84.67;103226.44;6315145;28;20217;-76
2021/01/05 09:04:02;;;;;;;2.50;2.50;;;;;;;1.11;84.52;103221.53;6308658;28;20194;-77
2021/01/05 09:07:06;;;;;;;2.17;2.17;;;;;;;1.11;84.42;103221.53;6310118;28;20202;-76
2021/01/05 09:10:16;;;;;;;2.90;2.80;;;;;;;1.12;84.59;103218.75;6321627;28;20212;-78
2021/01/05 09:13:24;;;;;;;2.53;2.43;;;;;;;0.89;85.06;103205.91;6313954;28;20333;-77
2021/01/05 09:16:30;;;;;;;2.73;2.50;;;;;;;1.11;84.78;103222.41;6310863;28;20631;-77
2021/01/05 09:19:34;;;;;;;1.93;1.93;;;;;;;0.97;84.83;103235.88;6312870;28;20224;-77
2021/01/05 09:22:37;;;;;;;2.60;2.60;;;;;;;0.93;85.60;103220.00;6313041;28;20197;-76
2021/01/05 09:25:40;;;;;;;2.50;2.40;;;;;;;1.04;85.84;103242.56;6307773;28;20205;-77
2021/01/05 09:28:43;;;;;;;2.23;2.13;;;;;;;0.98;85.49;103218.75;6310891;28;20190;-77
2021/01/05 09:31:49;;;;;;;2.50;2.50;;;;;;;1.04;85.85;103231.81;6311801;28;20196;-77
2021/01/05 09:34:53;;;;;;;2.33;2.30;;;;;;;1.08;85.16;103237.84;6312673;28;20306;-77
2021/01/05 09:37:56;;;;;;;2.47;2.27;;;;;;;1.07;84.82;103226.25;6303167;28;20265;-77
2021/01/05 09:41:00;;;;;;;2.00;2.00;;;;;;;0.59;84.54;103175.59;6317575;28;20213;-77
2021/01/05 09:44:03;;;;;;;2.10;2.10;;;;;;;0.95;85.34;103221.63;6316671;28;20568;-77
2021/01/05 09:47:07;;;;;;;5.80;2.20;;;;;;;0.95;85.45;103231.56;6315162;28;20704;-75
2021/01/05 09:50:14;;;;;;;2.20;2.17;;;;;;;1.01;85.57;103221.25;6314023;28;20756;-75
2021/01/05 09:53:19;;;;;;;3.30;3.20;;;;;;;1.05;84.42;103228.16;6315557;28;20343;-77
2021/01/05 09:56:23;;;;;;;2.30;2.20;;;;;;;1.04;84.20;103221.06;6317914;28;20193;-76
2021/01/05 09:59:27;;;;;;;2.67;2.47;;;;;;;0.90;84.26;103213.00;6313335;28;20209;-76
2021/01/05 10:02:30;;;;;;;2.97;2.87;;;;;;;1.01;84.98;103209.63;6303637;28;20719;-77
2021/01/05 10:05:34;;;;;;;2.50;2.30;;;;;;;0.95;84.40;103196.59;6291690;28;20206;-77
2021/01/05 10:08:38;;;;;;;4.23;3.83;;;;;;;1.10;84.25;103214.44;6303866;28;20198;-77
2021/01/05 10:11:43;;;;;;;2.73;2.63;;;;;;;0.98;84.49;103205.31;6313284;28;20199;-77
2021/01/05 10:14:46;;;;;;;2.60;2.50;;;;;;;0.81;84.42;103202.84;6327238;28;20265;-77
2021/01/05 10:17:49;;;;;;;2.30;2.20;;;;;;;0.84;84.75;103208.03;6322066;28;20206;-76
2021/01/05 10:20:53;;;;;;;2.20;2.20;;;;;;;0.78;85.18;103208.41;6311069;28;20201;-78
2021/01/05 10:23:58;;;;;;;1.83;1.83;;;;;;;0.92;84.03;103205.72;6315184;28;20190;-77
2021/01/05 10:27:02;;;;;;;2.27;2.20;;;;;;;0.94;84.24;103219.94;6317012;28;20241;-77
2021/01/05 10:30:08;;;;;;;2.00;2.00;;;;;;;0.89;84.41;103216.69;6315556;28;20295;-77
2021/01/05 10:33:18;;;;;;;2.43;2.23;;;;;;;0.94;83.83;103203.81;6316608;28;20197;-77
2021/01/05 10:36:22;;;;;;;2.80;2.70;;;;;;;0.94;84.49;103208.31;6316518;28;20653;-76
2021/01/05 10:39:40;;;;;;;2.10;2.00;;;;;;;1.01;83.79;103207.81;6314618;28;20636;-77
2021/01/05 10:42:45;;;;;;;2.20;2.20;;;;;;;0.93;83.71;103207.44;6314346;28;20320;-77
2021/01/05 10:45:48;;;;;;;3.23;2.60;;;;;;;0.98;83.24;103194.56;6309901;28;20186;-79
2021/01/05 10:48:51;;;;;;;2.23;2.17;;;;;;;0.96;83.34;103201.88;6318666;28;20209;-77
2021/01/05 10:51:58;;;;;;;2.20;2.20;;;;;;;0.97;83.09;103214.38;6310145;28;20219;-78
2021/01/05 10:55:01;;;;;;;2.10;2.10;;;;;;;0.86;82.69;103206.09;6314149;28;20802;-76
2021/01/05 10:58:08;;;;;;;2.50;2.40;;;;;;;0.95;83.18;103205.50;6298500;28;21549;-76
2021/01/05 11:01:12;;;;;;;2.10;2.10;;;;;;;0.93;83.33;103202.06;6315052;28;20224;-76
2021/01/05 11:04:15;;;;;;;2.07;2.07;;;;;;;0.85;82.06;103196.31;6314201;28;20281;-76
2021/01/05 11:07:19;;;;;;;1.90;1.90;;;;;;;0.92;82.53;103200.34;6315235;28;20286;-77
2021/01/05 11:10:23;;;;;;;2.07;2.07;;;;;;;1.01;82.57;103194.38;6313841;28;20977;-77
2021/01/05 11:13:26;;;;;;;2.53;2.50;;;;;;;0.98;81.56;103199.94;6320881;28;20353;-77
2021/01/05 11:16:29;;;;;;;2.10;2.10;;;;;;;0.94;81.58;103193.06;6314215;28;20193;-77
2021/01/05 11:19:32;;;;;;;2.00;2.00;;;;;;;1.04;81.36;103215.69;6313523;28;20617;-77
2021/01/05 11:22:36;;;;;;;2.20;2.20;;;;;;;0.95;81.07;103210.88;6321780;28;20209;-77
2021/01/05 11:25:40;;;;;;;2.20;2.20;;;;;;;0.84;81.82;103205.34;6314452;28;20194;-77
2021/01/05 11:28:43;;;;;;;2.30;2.30;;;;;;;0.93;81.87;103202.06;6319571;28;20220;-77
2021/01/05 11:31:53;;;;;;;2.50;2.40;;;;;;;0.90;81.79;103191.50;6314031;28;20305;-76
2021/01/05 11:34:56;;;;;;;3.00;2.67;;;;;;;0.87;81.51;103202.47;6309611;28;20187;-77
2021/01/05 11:38:00;;;;;;;2.70;2.50;;;;;;;0.87;81.40;103199.78;6316250;28;20219;-76
2021/01/05 11:41:05;;;;;;;2.30;2.30;;;;;;;0.74;81.85;103185.38;6312147;28;20205;-76
2021/01/05 11:44:10;;;;;;;2.10;2.10;;;;;;;0.76;82.02;103194.22;6306810;28;20622;-77
2021/01/05 11:47:16;;;;;;;2.27;2.27;;;;;;;0.71;81.27;103190.94;6307784;28;20257;-76
2021/01/05 11:50:20;;;;;;;2.60;2.50;;;;;;;0.85;81.54;103204.38;6304179;28;20627;-76
2021/01/05 11:53:24;;;;;;;2.10;2.10;;;;;;;0.69;81.78;103198.25;6308263;28;20589;-77
2021/01/05 11:56:29;;;;;;;2.17;2.00;;;;;;;0.68;82.10;103196.50;6309257;28;20213;-75
2021/01/05 11:59:32;;;;;;;3.00;2.80;;;;;;;0.72;82.54;103202.56;6306863;28;20214;-77
2021/01/05 12:02:35;;;;;;;2.97;2.77;;;;;;;0.70;82.86;103189.22;6311894;28;20205;-77
2021/01/05 12:05:39;;;;;;;3.30;2.73;;;;;;;0.72;83.01;103181.91;6313342;28;20242;-76
2021/01/05 12:08:43;;;;;;;2.20;2.20;;;;;;;0.75;82.57;103180.84;6314197;28;20205;-77
2021/01/05 12:11:46;;;;;;;2.37;2.30;;;;;;;0.82;81.77;103185.78;6313611;28;20197;-77
2021/01/05 12:14:50;;;;;;;2.30;2.20;;;;;;;0.82;82.14;103188.47;6313221;28;20208;-77
2021/01/05 12:17:53;;;;;;;2.03;2.00;;;;;;;0.80;82.02;103184.97;6313245;28;20207;-77
2021/01/05 12:20:56;;;;;;;3.17;3.00;;;;;;;0.51;81.40;103145.69;6317669;28;20342;-78
2021/01/05 12:24:01;;;;;;;4.43;2.70;;;;;;;0.73;82.04;103162.16;6313064;28;20466;-77
2021/01/05 12:27:08;;;;;;;2.37;2.33;;;;;;;0.64;82.46;103162.75;6330930;28;20298;-77
2021/01/05 12:30:13;;;;;;;2.40;2.30;;;;;;;0.65;81.81;103169.81;6309892;28;20297;-77
2021/01/05 12:33:25;;;;;;;1.90;1.90;;;;;;;0.71;81.58;103164.09;6310094;28;20195;-76
2021/01/05 12:36:30;;;;;;;2.10;2.10;;;;;;;0.71;82.01;103168.59;6312116;28;20583;-77
2021/01/05 12:39:35;;;;;;;1.93;1.93;;;;;;;0.69;80.82;103136.44;6310429;28;20221;-77
2021/01/05 12:42:39;;;;;;;2.47;2.43;;;;;;;0.75;81.33;103160.22;6310077;28;20538;-76
2021/01/05 12:45:42;;;;;;;2.10;2.10;;;;;;;0.83;82.10;103152.53;6312556;28;20198;-76
2021/01/05 12:48:45;;;;;;;3.03;2.10;;;;;;;0.72;81.56;103157.72;6305773;28;20231;-75
2021/01/05 12:52:11;;;;;;;2.07;1.97;;;;;;;0.51;81.12;103146.50;6312465;28;20280;-79
2021/01/05 12:55:16;;;;;;;1.80;1.80;;;;;;;0.67;81.82;103165.22;6312296;28;20198;-79
2021/01/05 12:58:25;;;;;;;2.10;2.10;;;;;;;0.70;81.70;103151.59;6303654;28;20212;-77
2021/01/05 13:01:29;;;;;;;2.40;2.03;;;;;;;0.75;81.47;103152.16;6304722;28;20204;-77
2021/01/05 13:04:32;;;;;;;2.03;2.03;;;;;;;0.82;81.81;103161.59;6298170;28;20208;-76
2021/01/05 13:07:35;;;;;;;2.27;2.17;;;;;;;0.87;80.69;103159.47;6304021;28;20572;-77
2021/01/05 13:10:39;;;;;;;2.07;2.07;;;;;;;0.84;80.65;103166.84;6311854;28;20285;-78
2021/01/05 13:13:43;;;;;;;2.10;2.10;;;;;;;0.23;80.70;103075.84;6308803;28;20188;-77
2021/01/05 13:16:47;;;;;;;1.80;1.80;;;;;;;0.83;80.18;103168.66;6310902;28;20197;-78
2021/01/05 13:19:50;;;;;;;1.50;1.50;;;;;;;0.79;81.00;103156.41;6309314;28;20209;-78
2021/01/05 13:22:54;;;;;;;1.90;1.90;;;;;;;0.72;80.66;103152.34;6309371;28;20197;-78
2021/01/05 13:25:59;;;;;;;2.17;2.17;;;;;;;0.73;79.98;103156.78;6312118;28;20201;-77
2021/01/05 13:29:07;;;;;;;1.87;1.87;;;;;;;0.77;79.91;103152.91;6310748;28;20203;-77
2021/01/05 13:32:14;;;;;;;2.00;2.00;;;;;;;0.58;79.68;103160.44;6310594;28;20206;-77
2021/01/05 13:35:20;;;;;;;1.80;1.80;;;;;;;0.55;80.19;103152.56;6320928;28;20473;-78
2021/01/05 13:38:23;;;;;;;1.87;1.87;;;;;;;0.53;80.78;103162.56;6310043;28;20574;-77
2021/01/05 13:41:31;;;;;;;1.60;1.60;;;;;;;0.53;79.87;103162.56;6307496;28;20225;-77
2021/01/05 13:44:34;;;;;;;1.80;1.70;;;;;;;0.40;80.21;103159.78;6306597;28;20285;-77
2021/01/05 13:47:38;;;;;;;1.97;1.97;;;;;;;0.28;81.07;103151.63;6307240;28;20199;-77
2021/01/05 13:50:45;;;;;;;1.63;1.63;;;;;;;0.21;81.67;103150.25;6317177;28;20278;-75
2021/01/05 13:53:48;;;;;;;1.83;1.83;;;;;;;0.19;81.55;103138.72;6315636;28;20628;-75
2021/01/05 13:56:57;;;;;;;1.77;1.77;;;;;;;0.16;81.79;103128.19;6313115;28;20228;-77
2021/01/05 14:00:00;;;;;;;2.23;2.13;;;;;;;0.21;82.44;103136.81;6311890;28;20210;-77
2021/01/05 14:03:06;;;;;;;1.70;1.70;;;;;;;0.14;82.58;103143.53;6314918;28;20196;-77
2021/01/05 14:06:16;;;;;;;2.10;2.10;;;;;;;0.10;83.15;103145.56;6309330;28;20201;-76
2021/01/05 14:09:20;;;;;;;2.23;1.97;;;;;;;0.04;83.39;103142.34;6314068;28;20680;-77
2021/01/05 14:12:27;;;;;;;2.30;2.20;;;;;;;0.16;83.00;103155.03;6302860;28;20243;-77
2021/01/05 14:15:30;;;;;;;4.00;2.30;;;;;;;0.09;82.79;103154.56;6320117;28;20192;-77
2021/01/05 14:18:33;;;;;;;1.77;1.77;;;;;;;0.02;83.15;103146.97;6318792;28;20194;-76
2021/01/05 14:21:38;;;;;;;1.80;1.80;;;;;;;-0.04;83.28;103154.44;6317023;28;20246;-76
2021/01/05 14:24:42;;;;;;;2.40;2.00;;;;;;;0.03;83.32;103148.72;6314143;28;20209;-76
2021/01/05 14:27:46;;;;;;;1.80;1.80;;;;;;;-0.03;84.08;103155.31;6292133;28;20614;-76
2021/01/05 14:30:50;;;;;;;2.27;2.20;;;;;;;0.11;83.73;103151.75;6287345;28;20213;-77
2021/01/05 14:33:55;;;;;;;1.90;1.80;;;;;;;0.18;83.52;103147.75;6287561;28;20243;-77
2021/01/05 14:37:01;;;;;;;2.37;2.20;;;;;;;0.09;83.00;103153.69;6280248;28;20213;-76
2021/01/05 14:40:07;;;;;;;2.20;2.20;;;;;;;-0.05;84.42;103152.69;6304692;28;20329;-78
2021/01/05 14:43:14;;;;;;;2.13;2.13;;;;;;;-0.08;83.83;103147.50;6282638;28;20209;-75
2021/01/05 14:46:21;;;;;;;2.20;2.20;;;;;;;-0.12;84.25;103151.34;6278581;28;20239;-76
2021/01/05 14:49:24;;;;;;;1.93;1.93;;;;;;;-0.26;84.36;103137.91;6291106;28;21026;-77